sensor_id;sensor_type;location;lat;lon;timestamp;temperature;humidity
45409;DHT22;31162;51.076;3.784;2022-09-09T00:02:22;15.40;99.90
45409;DHT22;31162;51.076;3.784;2022-09-09T00:05:44;15.50;99.90
45409;DHT22;31162;51.076;3.784;2022-09-09T00:08:02;15.50;99.90
45409;DHT22;31162;51.076;3.784;2022-09-09T00:10:39;15.60;99.90
45409;DHT22;31162;51.076;3.784;2022-09-09T00:13:20;15.50;99.90
45409;DHT22;31162;51.076;3.784;2022-09-09T00:21:39;15.50;99.90
45409;DHT22;31162;51.076;3.784;2022-09-09T00:24:23;15.50;99.90
45409;DHT22;31162;51.076;3.784;2022-09-09T00:26:55;15.50;99.90
45409;DHT22;31162;51.076;3.784;2022-09-09T00:29:38;15.60;99.90
45409;DHT22;31162;51.076;3.784;2022-09-09T00:32:18;15.60;99.90
45409;DHT22;31162;51.076;3.784;2022-09-09T00:35:16;15.60;99.90
45409;DHT22;31162;51.076;3.784;2022-09-09T00:37:45;15.50;99.90
45409;DHT22;31162;51.076;3.784;2022-09-09T00:40:33;15.50;99.90
45409;DHT22;31162;51.076;3.784;2022-09-09T00:43:27;15.50;99.90
45409;DHT22;31162;51.076;3.784;2022-09-09T00:46:03;15.40;99.90
45409;DHT22;31162;51.076;3.784;2022-09-09T00:48:48;15.30;99.90
45409;DHT22;31162;51.076;3.784;2022-09-09T00:59:40;15.10;99.90
45409;DHT22;31162;51.076;3.784;2022-09-09T01:02:52;15.10;99.90
45409;DHT22;31162;51.076;3.784;2022-09-09T01:07:49;15.00;99.90
45409;DHT22;31162;51.076;3.784;2022-09-09T01:10:29;15.10;99.90
45409;DHT22;31162;51.076;3.784;2022-09-09T01:13:01;15.10;99.90
45409;DHT22;31162;51.076;3.784;2022-09-09T01:15:30;15.20;99.90
45409;DHT22;31162;51.076;3.784;2022-09-09T01:18:10;15.20;99.90
45409;DHT22;31162;51.076;3.784;2022-09-09T01:26:19;15.00;99.90
45409;DHT22;31162;51.076;3.784;2022-09-09T01:28:48;15.00;99.90
45409;DHT22;31162;51.076;3.784;2022-09-09T01:31:20;15.00;99.90
45409;DHT22;31162;51.076;3.784;2022-09-09T01:33:47;14.90;99.90
45409;DHT22;31162;51.076;3.784;2022-09-09T01:36:23;14.90;99.90
45409;DHT22;31162;51.076;3.784;2022-09-09T01:38:50;14.90;99.90
45409;DHT22;31162;51.076;3.784;2022-09-09T01:41:16;14.80;99.90
45409;DHT22;31162;51.076;3.784;2022-09-09T01:43:41;14.80;99.90
45409;DHT22;31162;51.076;3.784;2022-09-09T01:46:07;14.80;99.90
45409;DHT22;31162;51.076;3.784;2022-09-09T01:48:33;14.70;99.90
45409;DHT22;31162;51.076;3.784;2022-09-09T01:50:59;14.70;99.90
45409;DHT22;31162;51.076;3.784;2022-09-09T01:53:27;14.70;99.90
45409;DHT22;31162;51.076;3.784;2022-09-09T01:56:01;14.70;99.90
45409;DHT22;31162;51.076;3.784;2022-09-09T02:04:54;14.80;99.90
45409;DHT22;31162;51.076;3.784;2022-09-09T02:07:40;14.70;99.90
45409;DHT22;31162;51.076;3.784;2022-09-09T02:10:25;14.60;99.90
45409;DHT22;31162;51.076;3.784;2022-09-09T02:13:16;14.60;99.90
45409;DHT22;31162;51.076;3.784;2022-09-09T02:15:47;14.60;99.90
45409;DHT22;31162;51.076;3.784;2022-09-09T02:18:18;14.60;99.90
45409;DHT22;31162;51.076;3.784;2022-09-09T02:20:46;14.70;99.90
45409;DHT22;31162;51.076;3.784;2022-09-09T02:23:15;14.70;99.90
45409;DHT22;31162;51.076;3.784;2022-09-09T02:25:41;14.60;99.90
45409;DHT22;31162;51.076;3.784;2022-09-09T02:28:08;14.70;99.90
45409;DHT22;31162;51.076;3.784;2022-09-09T02:30:35;14.70;99.90
45409;DHT22;31162;51.076;3.784;2022-09-09T02:33:04;14.80;99.90
45409;DHT22;31162;51.076;3.784;2022-09-09T02:35:34;14.90;99.90
45409;DHT22;31162;51.076;3.784;2022-09-09T02:38:05;15.00;99.90
45409;DHT22;31162;51.076;3.784;2022-09-09T02:40:32;15.10;99.90
45409;DHT22;31162;51.076;3.784;2022-09-09T02:42:58;15.20;99.90
45409;DHT22;31162;51.076;3.784;2022-09-09T02:45:29;15.20;99.90
45409;DHT22;31162;51.076;3.784;2022-09-09T02:48:36;15.30;99.90
45409;DHT22;31162;51.076;3.784;2022-09-09T02:51:18;15.30;99.90
45409;DHT22;31162;51.076;3.784;2022-09-09T02:56:41;15.30;99.90
45409;DHT22;31162;51.076;3.784;2022-09-09T02:59:10;15.20;99.90
45409;DHT22;31162;51.076;3.784;2022-09-09T03:01:36;15.20;99.90
45409;DHT22;31162;51.076;3.784;2022-09-09T03:04:04;15.30;99.90
45409;DHT22;31162;51.076;3.784;2022-09-09T03:06:30;15.30;99.90
45409;DHT22;31162;51.076;3.784;2022-09-09T03:08:56;15.30;99.90
45409;DHT22;31162;51.076;3.784;2022-09-09T03:11:22;15.30;99.90
45409;DHT22;31162;51.076;3.784;2022-09-09T03:13:48;15.30;99.90
45409;DHT22;31162;51.076;3.784;2022-09-09T03:16:14;15.30;99.90
45409;DHT22;31162;51.076;3.784;2022-09-09T03:18:40;15.20;99.90
45409;DHT22;31162;51.076;3.784;2022-09-09T03:21:06;15.20;99.90
45409;DHT22;31162;51.076;3.784;2022-09-09T03:23:32;15.20;99.90
45409;DHT22;31162;51.076;3.784;2022-09-09T03:25:57;15.30;99.90
45409;DHT22;31162;51.076;3.784;2022-09-09T03:28:24;15.30;99.90
45409;DHT22;31162;51.076;3.784;2022-09-09T03:31:02;15.30;99.90
45409;DHT22;31162;51.076;3.784;2022-09-09T03:33:27;15.30;99.90
45409;DHT22;31162;51.076;3.784;2022-09-09T03:35:55;15.30;99.90
45409;DHT22;31162;51.076;3.784;2022-09-09T03:38:23;15.30;99.90
45409;DHT22;31162;51.076;3.784;2022-09-09T03:40:51;15.30;99.90
45409;DHT22;31162;51.076;3.784;2022-09-09T03:43:17;15.40;99.90
45409;DHT22;31162;51.076;3.784;2022-09-09T03:45:46;15.40;99.90
45409;DHT22;31162;51.076;3.784;2022-09-09T03:48:15;15.50;99.90
45409;DHT22;31162;51.076;3.784;2022-09-09T03:53:11;15.50;99.90
45409;DHT22;31162;51.076;3.784;2022-09-09T03:55:37;15.60;99.90
45409;DHT22;31162;51.076;3.784;2022-09-09T03:58:02;15.60;99.90
45409;DHT22;31162;51.076;3.784;2022-09-09T04:00:28;15.60;99.90
45409;DHT22;31162;51.076;3.784;2022-09-09T04:02:55;15.60;99.90
45409;DHT22;31162;51.076;3.784;2022-09-09T04:05:22;15.70;99.90
45409;DHT22;31162;51.076;3.784;2022-09-09T04:07:47;15.70;99.90
45409;DHT22;31162;51.076;3.784;2022-09-09T04:10:13;15.60;99.90
45409;DHT22;31162;51.076;3.784;2022-09-09T04:12:39;15.70;99.90
45409;DHT22;31162;51.076;3.784;2022-09-09T04:15:05;15.60;99.90
45409;DHT22;31162;51.076;3.784;2022-09-09T04:17:31;15.60;99.90
45409;DHT22;31162;51.076;3.784;2022-09-09T04:19:56;15.50;99.90
45409;DHT22;31162;51.076;3.784;2022-09-09T04:22:22;15.50;99.90
45409;DHT22;31162;51.076;3.784;2022-09-09T04:24:48;15.40;99.90
45409;DHT22;31162;51.076;3.784;2022-09-09T04:27:13;15.40;99.90
45409;DHT22;31162;51.076;3.784;2022-09-09T04:29:39;15.40;99.90
45409;DHT22;31162;51.076;3.784;2022-09-09T04:32:05;15.50;99.90
45409;DHT22;31162;51.076;3.784;2022-09-09T04:34:30;15.50;99.90
45409;DHT22;31162;51.076;3.784;2022-09-09T04:36:57;15.70;99.90
45409;DHT22;31162;51.076;3.784;2022-09-09T04:39:22;15.70;99.90
45409;DHT22;31162;51.076;3.784;2022-09-09T04:41:48;15.60;99.90
45409;DHT22;31162;51.076;3.784;2022-09-09T04:44:15;15.70;99.90
45409;DHT22;31162;51.076;3.784;2022-09-09T04:46:41;15.80;99.90
45409;DHT22;31162;51.076;3.784;2022-09-09T04:49:06;15.80;99.90
45409;DHT22;31162;51.076;3.784;2022-09-09T04:51:32;15.80;99.90
45409;DHT22;31162;51.076;3.784;2022-09-09T04:53:58;15.80;99.90
45409;DHT22;31162;51.076;3.784;2022-09-09T04:56:26;15.80;99.90
45409;DHT22;31162;51.076;3.784;2022-09-09T04:58:54;15.80;99.90
45409;DHT22;31162;51.076;3.784;2022-09-09T05:01:21;15.80;99.90
45409;DHT22;31162;51.076;3.784;2022-09-09T05:03:48;15.90;99.90
45409;DHT22;31162;51.076;3.784;2022-09-09T05:06:16;15.90;99.90
45409;DHT22;31162;51.076;3.784;2022-09-09T05:08:44;15.80;99.90
45409;DHT22;31162;51.076;3.784;2022-09-09T05:11:18;15.70;99.90
45409;DHT22;31162;51.076;3.784;2022-09-09T05:13:44;15.70;99.90
45409;DHT22;31162;51.076;3.784;2022-09-09T05:16:11;15.70;99.90
45409;DHT22;31162;51.076;3.784;2022-09-09T05:18:38;15.70;99.90
45409;DHT22;31162;51.076;3.784;2022-09-09T05:21:04;15.70;99.90
45409;DHT22;31162;51.076;3.784;2022-09-09T05:23:32;15.80;99.90
45409;DHT22;31162;51.076;3.784;2022-09-09T05:25:58;15.70;99.90
45409;DHT22;31162;51.076;3.784;2022-09-09T05:28:27;15.80;99.90
45409;DHT22;31162;51.076;3.784;2022-09-09T05:31:04;15.80;99.90
45409;DHT22;31162;51.076;3.784;2022-09-09T05:33:31;15.80;99.90
45409;DHT22;31162;51.076;3.784;2022-09-09T05:38:27;16.00;99.90
45409;DHT22;31162;51.076;3.784;2022-09-09T05:40:53;16.00;99.90
45409;DHT22;31162;51.076;3.784;2022-09-09T05:43:19;16.10;99.90
45409;DHT22;31162;51.076;3.784;2022-09-09T05:45:57;16.00;99.90
45409;DHT22;31162;51.076;3.784;2022-09-09T05:48:23;16.00;99.90
45409;DHT22;31162;51.076;3.784;2022-09-09T05:50:53;16.10;99.90
45409;DHT22;31162;51.076;3.784;2022-09-09T05:53:19;16.10;99.90
45409;DHT22;31162;51.076;3.784;2022-09-09T05:55:45;16.10;99.90
45409;DHT22;31162;51.076;3.784;2022-09-09T05:58:11;16.30;99.90
45409;DHT22;31162;51.076;3.784;2022-09-09T06:00:37;16.40;99.90
45409;DHT22;31162;51.076;3.784;2022-09-09T06:03:03;16.50;99.90
45409;DHT22;31162;51.076;3.784;2022-09-09T06:05:29;16.60;99.90
45409;DHT22;31162;51.076;3.784;2022-09-09T06:07:55;16.80;99.90
45409;DHT22;31162;51.076;3.784;2022-09-09T06:10:21;16.80;99.90
45409;DHT22;31162;51.076;3.784;2022-09-09T06:12:47;16.90;99.90
45409;DHT22;31162;51.076;3.784;2022-09-09T06:15:15;16.90;99.90
45409;DHT22;31162;51.076;3.784;2022-09-09T06:17:41;16.80;99.90
45409;DHT22;31162;51.076;3.784;2022-09-09T06:20:07;16.80;99.90
45409;DHT22;31162;51.076;3.784;2022-09-09T06:22:34;16.60;99.90
45409;DHT22;31162;51.076;3.784;2022-09-09T06:25:00;16.40;99.90
45409;DHT22;31162;51.076;3.784;2022-09-09T06:27:27;16.20;99.90
45409;DHT22;31162;51.076;3.784;2022-09-09T06:29:53;16.10;99.90
45409;DHT22;31162;51.076;3.784;2022-09-09T06:32:19;16.10;99.90
45409;DHT22;31162;51.076;3.784;2022-09-09T06:34:45;16.10;99.90
45409;DHT22;31162;51.076;3.784;2022-09-09T06:37:11;16.00;99.90
45409;DHT22;31162;51.076;3.784;2022-09-09T06:39:36;16.00;99.90
45409;DHT22;31162;51.076;3.784;2022-09-09T06:42:02;15.90;99.90
45409;DHT22;31162;51.076;3.784;2022-09-09T06:44:28;16.00;99.90
45409;DHT22;31162;51.076;3.784;2022-09-09T06:46:58;16.00;99.90
45409;DHT22;31162;51.076;3.784;2022-09-09T06:49:24;16.10;99.90
45409;DHT22;31162;51.076;3.784;2022-09-09T06:51:50;16.20;99.90
45409;DHT22;31162;51.076;3.784;2022-09-09T06:54:17;16.40;99.90
45409;DHT22;31162;51.076;3.784;2022-09-09T06:56:43;16.60;99.90
45409;DHT22;31162;51.076;3.784;2022-09-09T06:59:10;16.70;99.90
45409;DHT22;31162;51.076;3.784;2022-09-09T07:01:42;16.90;99.90
45409;DHT22;31162;51.076;3.784;2022-09-09T07:04:09;17.00;99.90
45409;DHT22;31162;51.076;3.784;2022-09-09T07:06:38;17.10;99.90
45409;DHT22;31162;51.076;3.784;2022-09-09T07:09:06;17.70;99.90
45409;DHT22;31162;51.076;3.784;2022-09-09T07:11:48;19.90;99.90
45409;DHT22;31162;51.076;3.784;2022-09-09T07:14:14;21.10;99.90
45409;DHT22;31162;51.076;3.784;2022-09-09T07:16:41;21.60;99.90
45409;DHT22;31162;51.076;3.784;2022-09-09T07:19:07;21.80;99.90
45409;DHT22;31162;51.076;3.784;2022-09-09T07:21:33;22.10;99.90
45409;DHT22;31162;51.076;3.784;2022-09-09T07:23:59;21.90;99.90
45409;DHT22;31162;51.076;3.784;2022-09-09T07:26:27;21.40;99.90
45409;DHT22;31162;51.076;3.784;2022-09-09T07:28:54;20.50;99.90
45409;DHT22;31162;51.076;3.784;2022-09-09T07:31:27;20.30;99.90
45409;DHT22;31162;51.076;3.784;2022-09-09T07:33:53;20.60;99.90
45409;DHT22;31162;51.076;3.784;2022-09-09T07:36:25;22.00;99.90
45409;DHT22;31162;51.076;3.784;2022-09-09T07:38:59;22.30;99.90
45409;DHT22;31162;51.076;3.784;2022-09-09T07:41:28;23.10;99.90
45409;DHT22;31162;51.076;3.784;2022-09-09T07:43:54;22.90;99.90
45409;DHT22;31162;51.076;3.784;2022-09-09T07:46:22;22.60;99.90
45409;DHT22;31162;51.076;3.784;2022-09-09T07:48:50;21.60;99.90
45409;DHT22;31162;51.076;3.784;2022-09-09T07:51:19;21.50;99.90
45409;DHT22;31162;51.076;3.784;2022-09-09T07:53:47;21.50;99.90
45409;DHT22;31162;51.076;3.784;2022-09-09T07:56:15;21.10;99.90
45409;DHT22;31162;51.076;3.784;2022-09-09T07:58:42;20.70;99.90
45409;DHT22;31162;51.076;3.784;2022-09-09T08:01:21;20.60;99.90
45409;DHT22;31162;51.076;3.784;2022-09-09T08:03:56;20.40;99.90
45409;DHT22;31162;51.076;3.784;2022-09-09T08:06:32;19.90;99.90
45409;DHT22;31162;51.076;3.784;2022-09-09T08:08:58;19.30;99.90
45409;DHT22;31162;51.076;3.784;2022-09-09T08:11:26;18.90;99.90
45409;DHT22;31162;51.076;3.784;2022-09-09T08:13:52;18.30;99.90
45409;DHT22;31162;51.076;3.784;2022-09-09T08:16:24;18.00;99.90
45409;DHT22;31162;51.076;3.784;2022-09-09T08:18:51;17.80;99.90
45409;DHT22;31162;51.076;3.784;2022-09-09T08:21:22;17.80;99.90
45409;DHT22;31162;51.076;3.784;2022-09-09T08:23:51;17.60;99.90
45409;DHT22;31162;51.076;3.784;2022-09-09T08:26:23;17.40;99.90
45409;DHT22;31162;51.076;3.784;2022-09-09T08:28:50;17.40;99.90
45409;DHT22;31162;51.076;3.784;2022-09-09T08:31:20;17.40;99.90
45409;DHT22;31162;51.076;3.784;2022-09-09T08:33:46;17.30;99.90
45409;DHT22;31162;51.076;3.784;2022-09-09T08:36:18;17.20;99.90
45409;DHT22;31162;51.076;3.784;2022-09-09T08:38:51;17.10;99.90
45409;DHT22;31162;51.076;3.784;2022-09-09T08:46:47;17.10;99.90
45409;DHT22;31162;51.076;3.784;2022-09-09T08:52:31;17.10;99.90
45409;DHT22;31162;51.076;3.784;2022-09-09T08:57:52;17.30;99.90
45409;DHT22;31162;51.076;3.784;2022-09-09T09:00:20;17.50;99.90
45409;DHT22;31162;51.076;3.784;2022-09-09T09:03:05;17.60;99.90
45409;DHT22;31162;51.076;3.784;2022-09-09T09:05:37;17.70;99.90
45409;DHT22;31162;51.076;3.784;2022-09-09T09:08:58;17.70;99.90
45409;DHT22;31162;51.076;3.784;2022-09-09T09:11:04;17.70;99.90
45409;DHT22;31162;51.076;3.784;2022-09-09T09:14:00;17.70;99.90
45409;DHT22;31162;51.076;3.784;2022-09-09T09:16:54;17.70;99.90
45409;DHT22;31162;51.076;3.784;2022-09-09T09:19:22;17.60;99.90
45409;DHT22;31162;51.076;3.784;2022-09-09T09:22:19;17.40;99.90
45409;DHT22;31162;51.076;3.784;2022-09-09T09:30:20;18.30;99.90
45409;DHT22;31162;51.076;3.784;2022-09-09T09:35:18;20.30;99.90
45409;DHT22;31162;51.076;3.784;2022-09-09T09:37:44;20.50;99.90
45409;DHT22;31162;51.076;3.784;2022-09-09T09:40:19;21.20;99.90
45409;DHT22;31162;51.076;3.784;2022-09-09T09:42:59;21.60;99.90
45409;DHT22;31162;51.076;3.784;2022-09-09T09:45:31;22.40;99.90
45409;DHT22;31162;51.076;3.784;2022-09-09T09:47:59;23.00;99.90
45409;DHT22;31162;51.076;3.784;2022-09-09T09:50:25;22.00;99.90
45409;DHT22;31162;51.076;3.784;2022-09-09T09:52:56;21.40;99.90
45409;DHT22;31162;51.076;3.784;2022-09-09T09:55:23;20.80;99.90
45409;DHT22;31162;51.076;3.784;2022-09-09T09:57:49;20.30;99.90
45409;DHT22;31162;51.076;3.784;2022-09-09T10:00:18;20.00;99.90
45409;DHT22;31162;51.076;3.784;2022-09-09T10:02:46;19.90;99.90
45409;DHT22;31162;51.076;3.784;2022-09-09T10:05:16;19.90;99.90
45409;DHT22;31162;51.076;3.784;2022-09-09T10:07:42;19.90;99.90
45409;DHT22;31162;51.076;3.784;2022-09-09T10:10:18;19.90;99.90
45409;DHT22;31162;51.076;3.784;2022-09-09T10:27:32;19.80;99.90
45409;DHT22;31162;51.076;3.784;2022-09-09T10:30:21;20.70;99.90
45409;DHT22;31162;51.076;3.784;2022-09-09T10:33:21;21.10;99.90
45409;DHT22;31162;51.076;3.784;2022-09-09T10:38:46;21.00;99.90
45409;DHT22;31162;51.076;3.784;2022-09-09T10:44:17;20.80;99.90
45409;DHT22;31162;51.076;3.784;2022-09-09T10:55:19;21.80;99.90
45409;DHT22;31162;51.076;3.784;2022-09-09T10:57:48;22.00;99.90
45409;DHT22;31162;51.076;3.784;2022-09-09T11:02:53;21.50;99.90
45409;DHT22;31162;51.076;3.784;2022-09-09T11:05:38;21.40;99.90
45409;DHT22;31162;51.076;3.784;2022-09-09T11:19:13;22.30;99.90
45409;DHT22;31162;51.076;3.784;2022-09-09T11:21:48;23.00;99.90
45409;DHT22;31162;51.076;3.784;2022-09-09T11:24:37;23.40;99.90
45409;DHT22;31162;51.076;3.784;2022-09-09T11:32:56;25.30;99.90
45409;DHT22;31162;51.076;3.784;2022-09-09T11:38:18;25.30;99.90
45409;DHT22;31162;51.076;3.784;2022-09-09T11:40:45;24.70;99.90
45409;DHT22;31162;51.076;3.784;2022-09-09T11:43:18;24.50;99.90
45409;DHT22;31162;51.076;3.784;2022-09-09T11:45:58;24.20;99.90
45409;DHT22;31162;51.076;3.784;2022-09-09T11:51:08;24.20;99.90
45409;DHT22;31162;51.076;3.784;2022-09-09T11:53:36;24.10;99.90
45409;DHT22;31162;51.076;3.784;2022-09-09T11:56:13;24.10;99.90
45409;DHT22;31162;51.076;3.784;2022-09-09T11:59:19;24.00;99.90
45409;DHT22;31162;51.076;3.784;2022-09-09T12:01:44;24.20;99.90
45409;DHT22;31162;51.076;3.784;2022-09-09T12:07:02;23.50;99.90
45409;DHT22;31162;51.076;3.784;2022-09-09T12:17:18;24.40;99.90
45409;DHT22;31162;51.076;3.784;2022-09-09T12:19:45;24.50;99.90
45409;DHT22;31162;51.076;3.784;2022-09-09T12:22:26;24.40;99.90
45409;DHT22;31162;51.076;3.784;2022-09-09T12:25:18;23.60;99.90
45409;DHT22;31162;51.076;3.784;2022-09-09T12:33:34;22.70;99.90
45409;DHT22;31162;51.076;3.784;2022-09-09T12:36:00;23.00;99.90
45409;DHT22;31162;51.076;3.784;2022-09-09T12:38:32;23.60;99.90
45409;DHT22;31162;51.076;3.784;2022-09-09T12:40:58;23.60;99.90
45409;DHT22;31162;51.076;3.784;2022-09-09T12:43:26;23.40;99.90
45409;DHT22;31162;51.076;3.784;2022-09-09T12:45:59;23.10;99.90
45409;DHT22;31162;51.076;3.784;2022-09-09T12:48:36;22.90;99.90
45409;DHT22;31162;51.076;3.784;2022-09-09T12:51:04;22.90;99.90
45409;DHT22;31162;51.076;3.784;2022-09-09T12:53:35;22.90;99.90
45409;DHT22;31162;51.076;3.784;2022-09-09T12:56:20;23.00;99.90
45409;DHT22;31162;51.076;3.784;2022-09-09T12:58:49;23.10;99.90
45409;DHT22;31162;51.076;3.784;2022-09-09T13:03:50;22.50;99.90
45409;DHT22;31162;51.076;3.784;2022-09-09T13:06:30;22.40;99.90
45409;DHT22;31162;51.076;3.784;2022-09-09T13:08:58;22.80;99.90
45409;DHT22;31162;51.076;3.784;2022-09-09T13:11:39;22.80;99.90
45409;DHT22;31162;51.076;3.784;2022-09-09T13:14:18;22.90;99.90
45409;DHT22;31162;51.076;3.784;2022-09-09T13:17:04;22.80;99.90
45409;DHT22;31162;51.076;3.784;2022-09-09T13:19:37;22.90;99.90
45409;DHT22;31162;51.076;3.784;2022-09-09T13:22:35;23.10;99.90
45409;DHT22;31162;51.076;3.784;2022-09-09T13:27:50;23.40;99.90
45409;DHT22;31162;51.076;3.784;2022-09-09T13:30:24;23.30;99.90
45409;DHT22;31162;51.076;3.784;2022-09-09T13:35:35;23.80;99.90
45409;DHT22;31162;51.076;3.784;2022-09-09T13:38:08;23.90;99.90
45409;DHT22;31162;51.076;3.784;2022-09-09T13:40:37;24.20;99.90
45409;DHT22;31162;51.076;3.784;2022-09-09T13:43:03;24.80;99.90
45409;DHT22;31162;51.076;3.784;2022-09-09T13:45:31;25.30;99.90
45409;DHT22;31162;51.076;3.784;2022-09-09T13:47:56;26.00;99.90
45409;DHT22;31162;51.076;3.784;2022-09-09T13:50:29;26.20;99.90
45409;DHT22;31162;51.076;3.784;2022-09-09T13:52:57;26.00;99.90
45409;DHT22;31162;51.076;3.784;2022-09-09T13:55:27;25.70;99.90
45409;DHT22;31162;51.076;3.784;2022-09-09T13:58:03;25.10;99.90
45409;DHT22;31162;51.076;3.784;2022-09-09T14:00:33;24.80;99.90
45409;DHT22;31162;51.076;3.784;2022-09-09T14:02:59;24.70;99.90
45409;DHT22;31162;51.076;3.784;2022-09-09T14:05:31;24.70;99.90
45409;DHT22;31162;51.076;3.784;2022-09-09T14:07:57;24.60;99.90
45409;DHT22;31162;51.076;3.784;2022-09-09T14:10:23;24.60;99.90
45409;DHT22;31162;51.076;3.784;2022-09-09T14:12:49;24.50;99.90
45409;DHT22;31162;51.076;3.784;2022-09-09T14:15:14;24.40;99.90
45409;DHT22;31162;51.076;3.784;2022-09-09T14:17:40;23.80;99.90
45409;DHT22;31162;51.076;3.784;2022-09-09T14:20:07;23.20;99.90
45409;DHT22;31162;51.076;3.784;2022-09-09T14:22:33;22.90;99.90
45409;DHT22;31162;51.076;3.784;2022-09-09T14:24:59;22.60;99.90
45409;DHT22;31162;51.076;3.784;2022-09-09T14:27:25;22.40;99.90
45409;DHT22;31162;51.076;3.784;2022-09-09T14:29:52;22.30;99.90
45409;DHT22;31162;51.076;3.784;2022-09-09T14:32:18;22.40;99.90
45409;DHT22;31162;51.076;3.784;2022-09-09T14:34:44;22.50;99.90
45409;DHT22;31162;51.076;3.784;2022-09-09T14:37:09;22.70;99.90
45409;DHT22;31162;51.076;3.784;2022-09-09T14:39:35;22.90;99.90
45409;DHT22;31162;51.076;3.784;2022-09-09T14:42:01;23.10;99.90
45409;DHT22;31162;51.076;3.784;2022-09-09T14:44:27;23.30;99.90
45409;DHT22;31162;51.076;3.784;2022-09-09T14:46:53;23.70;99.90
45409;DHT22;31162;51.076;3.784;2022-09-09T14:49:19;23.70;99.90
45409;DHT22;31162;51.076;3.784;2022-09-09T14:51:45;23.90;99.90
45409;DHT22;31162;51.076;3.784;2022-09-09T14:54:10;24.10;99.90
45409;DHT22;31162;51.076;3.784;2022-09-09T14:56:36;24.10;99.90
45409;DHT22;31162;51.076;3.784;2022-09-09T14:59:03;23.70;99.90
45409;DHT22;31162;51.076;3.784;2022-09-09T15:01:31;22.70;99.90
45409;DHT22;31162;51.076;3.784;2022-09-09T15:04:03;22.10;99.90
45409;DHT22;31162;51.076;3.784;2022-09-09T15:06:29;21.90;99.90
45409;DHT22;31162;51.076;3.784;2022-09-09T15:08:55;21.80;99.90
45409;DHT22;31162;51.076;3.784;2022-09-09T15:11:28;21.70;99.90
45409;DHT22;31162;51.076;3.784;2022-09-09T15:13:56;21.60;99.90
45409;DHT22;31162;51.076;3.784;2022-09-09T15:16:25;21.60;99.90
45409;DHT22;31162;51.076;3.784;2022-09-09T15:18:53;21.60;99.90
45409;DHT22;31162;51.076;3.784;2022-09-09T15:21:21;21.60;99.90
45409;DHT22;31162;51.076;3.784;2022-09-09T15:23:48;22.00;99.90
45409;DHT22;31162;51.076;3.784;2022-09-09T15:26:15;22.40;99.90
45409;DHT22;31162;51.076;3.784;2022-09-09T15:28:41;22.70;99.90
45409;DHT22;31162;51.076;3.784;2022-09-09T15:31:17;23.00;99.90
45409;DHT22;31162;51.076;3.784;2022-09-09T15:33:55;23.00;99.90
45409;DHT22;31162;51.076;3.784;2022-09-09T15:36:36;23.00;99.90
45409;DHT22;31162;51.076;3.784;2022-09-09T15:39:05;22.80;99.90
45409;DHT22;31162;51.076;3.784;2022-09-09T15:41:31;22.80;99.90
45409;DHT22;31162;51.076;3.784;2022-09-09T15:43:58;22.70;99.90
45409;DHT22;31162;51.076;3.784;2022-09-09T15:49:15;22.30;99.90
45409;DHT22;31162;51.076;3.784;2022-09-09T15:51:45;22.10;99.90
45409;DHT22;31162;51.076;3.784;2022-09-09T15:54:16;21.90;99.90
45409;DHT22;31162;51.076;3.784;2022-09-09T15:56:44;21.70;99.90
45409;DHT22;31162;51.076;3.784;2022-09-09T15:59:10;21.80;99.90
45409;DHT22;31162;51.076;3.784;2022-09-09T16:01:37;21.90;99.90
45409;DHT22;31162;51.076;3.784;2022-09-09T16:04:05;21.90;99.90
45409;DHT22;31162;51.076;3.784;2022-09-09T16:06:30;21.90;99.90
45409;DHT22;31162;51.076;3.784;2022-09-09T16:08:58;22.00;99.90
45409;DHT22;31162;51.076;3.784;2022-09-09T16:11:29;22.10;99.90
45409;DHT22;31162;51.076;3.784;2022-09-09T16:13:56;22.30;99.90
45409;DHT22;31162;51.076;3.784;2022-09-09T16:16:24;22.30;99.90
45409;DHT22;31162;51.076;3.784;2022-09-09T16:18:52;22.40;99.90
45409;DHT22;31162;51.076;3.784;2022-09-09T16:21:24;22.60;99.90
45409;DHT22;31162;51.076;3.784;2022-09-09T16:23:52;22.90;99.90
45409;DHT22;31162;51.076;3.784;2022-09-09T16:26:22;23.20;99.90
45409;DHT22;31162;51.076;3.784;2022-09-09T16:28:48;23.20;99.90
45409;DHT22;31162;51.076;3.784;2022-09-09T16:31:17;23.00;99.90
45409;DHT22;31162;51.076;3.784;2022-09-09T16:33:44;22.90;99.90
45409;DHT22;31162;51.076;3.784;2022-09-09T16:36:14;22.90;99.90
45409;DHT22;31162;51.076;3.784;2022-09-09T16:38:41;22.80;99.90
45409;DHT22;31162;51.076;3.784;2022-09-09T16:41:10;22.80;99.90
45409;DHT22;31162;51.076;3.784;2022-09-09T16:43:36;22.50;99.90
45409;DHT22;31162;51.076;3.784;2022-09-09T16:46:17;22.30;99.90
45409;DHT22;31162;51.076;3.784;2022-09-09T16:48:44;22.00;99.90
45409;DHT22;31162;51.076;3.784;2022-09-09T16:51:19;22.00;99.90
45409;DHT22;31162;51.076;3.784;2022-09-09T16:53:45;22.00;99.90
45409;DHT22;31162;51.076;3.784;2022-09-09T16:56:20;22.00;99.90
45409;DHT22;31162;51.076;3.784;2022-09-09T16:58:51;21.90;99.90
45409;DHT22;31162;51.076;3.784;2022-09-09T17:01:17;21.80;99.90
45409;DHT22;31162;51.076;3.784;2022-09-09T17:03:42;21.70;99.90
45409;DHT22;31162;51.076;3.784;2022-09-09T17:06:13;21.60;99.90
45409;DHT22;31162;51.076;3.784;2022-09-09T17:08:40;21.40;99.90
45409;DHT22;31162;51.076;3.784;2022-09-09T17:11:17;21.40;99.90
45409;DHT22;31162;51.076;3.784;2022-09-09T17:13:44;21.40;99.90
45409;DHT22;31162;51.076;3.784;2022-09-09T17:16:11;21.20;99.90
45409;DHT22;31162;51.076;3.784;2022-09-09T17:18:37;20.80;99.90
45409;DHT22;31162;51.076;3.784;2022-09-09T17:21:04;20.40;99.90
45409;DHT22;31162;51.076;3.784;2022-09-09T17:23:32;20.00;99.90
45409;DHT22;31162;51.076;3.784;2022-09-09T17:25:59;19.80;99.90
45409;DHT22;31162;51.076;3.784;2022-09-09T17:28:26;19.50;99.90
45409;DHT22;31162;51.076;3.784;2022-09-09T17:30:57;19.30;99.90
45409;DHT22;31162;51.076;3.784;2022-09-09T17:33:27;19.10;99.90
45409;DHT22;31162;51.076;3.784;2022-09-09T17:35:59;19.00;99.90
45409;DHT22;31162;51.076;3.784;2022-09-09T17:38:25;18.90;99.90
45409;DHT22;31162;51.076;3.784;2022-09-09T17:41:16;18.90;99.90
45409;DHT22;31162;51.076;3.784;2022-09-09T17:43:42;18.90;99.90
45409;DHT22;31162;51.076;3.784;2022-09-09T17:48:36;19.00;99.90
45409;DHT22;31162;51.076;3.784;2022-09-09T17:51:04;19.00;99.90
45409;DHT22;31162;51.076;3.784;2022-09-09T17:53:35;19.00;99.90
45409;DHT22;31162;51.076;3.784;2022-09-09T17:56:03;18.80;99.90
45409;DHT22;31162;51.076;3.784;2022-09-09T17:58:28;18.70;99.90
45409;DHT22;31162;51.076;3.784;2022-09-09T18:00:54;18.70;99.90
45409;DHT22;31162;51.076;3.784;2022-09-09T18:03:20;18.60;99.90
45409;DHT22;31162;51.076;3.784;2022-09-09T18:05:46;18.60;99.90
45409;DHT22;31162;51.076;3.784;2022-09-09T18:08:11;18.70;99.90
45409;DHT22;31162;51.076;3.784;2022-09-09T18:10:38;18.60;99.90